Notice: Undefined index: language in /home/u908952976/domains/airgaviota-va.com/public_html/vam/index.php on line 25
AirGaviota-VA

... VIRTUAL FLIGHT...OUR PASSION



 FLIGHT DETAILS
Pilot: GVT462 Peter Voksan Aircraft: REDEYES - ANTONOV AN-2 (32V_64B) 51967-AN-2-TARAZ-KZ Distance: 60NM
Departure MUHG Arrival MUCU Duration 00:40
Validation Validated Type Regular Tail Number GV-AET
ZFW 4085 Block Fuel/Initial FOB 69/0 Flight Fuel 56
Passengers 9 Cargo 2000 Alternate MUGT
Departure Time Cruise Speed Flight Level 055
Flight Type VFR Aircraft Type AN2 Weight Unit Kg
Date 24-05-2020 Pilot Comments Network IVAO
Crashed No Validator Comments Flight Rating -30

 ROUTE
ROUTE DCT
REMARKS RMK/ AIRGAVIOTA AEROTAXI VFR TOUR LEG09
 FLIGHT FAILURES
Crashed OK Beacon off & Engine Running Fail KIAS Above 250 below 10000 FT OK
Lights OFF below 10000 FT OK Lights ON above 10000 FT OK Stall OK
Overspeed OK Flight paused OK Refueling OK
Slew detected OK Taxi & Taxi lights off Fail Take off & lights off OK
Landing & lights off OK Landed in not planned airport OK Taxi Speed OK
Wrong altimeter in Take off OK Wrong altimeter in Landing OK
 LANDING ANALYSIS
Landing wind 326º/2 kt Landing heading 324
Landing VS: -24.61 ft/min Landing IAS: 57.39 kt
Landing Force G 1.1 G Landing Bank -1.6
Landing Pitch 1.4 Landing Flaps 0
Navigation Lights ON Landing Lights ON
Beacon Lights OFF Strobe Lights OFF
 FLIGHT MAP
 ALTITUDE CHART
 FLIGHT FINANCIAL REPORT
Cargo:2000 .Price per Cargo Unit:12 24,000.00
Number of PAX:9 .Price per PAX:100 900.00
TOTAL 24,900.00
 MAIN EVENTS
DATE EVENTIASALTITUDE
2020-05-24 11:28:35 SIM ACARS version 1.4.10371
2020-05-24 11:28:35 BOARDING0371
2020-05-24 11:30:05 STARTING ENGINE 1 0371
2020-05-24 11:30:06 BEACON LIGHT OFF & ENGINE ON0371
2020-05-24 11:33:14 FLAPS EXTENSION 2 % 0371
2020-05-24 11:33:14 FLAPS EXTENSION 4 % 0371
2020-05-24 11:33:14 FLAPS EXTENSION 7 % 0371
2020-05-24 11:33:14 FLAPS EXTENSION 8 % 0371
2020-05-24 11:33:15 FLAPS EXTENSION 10 % 0371
2020-05-24 11:33:15 FLAPS EXTENSION 12 % 0371
2020-05-24 11:33:15 FLAPS EXTENSION 15 % 0371
2020-05-24 11:33:15 FLAPS EXTENSION 16 % 0371
2020-05-24 11:33:15 FLAPS EXTENSION 19 % 0371
2020-05-24 11:33:15 FLAPS EXTENSION 20 % 0371
2020-05-24 11:33:16 FLAPS EXTENSION 23 % 0371
2020-05-24 11:33:16 FLAPS EXTENSION 25 % 0371
2020-05-24 11:33:16 FLAPS EXTENSION 27 % 0371
2020-05-24 11:33:16 FLAPS EXTENSION 29 % 0371
2020-05-24 11:33:16 FLAPS EXTENSION 31 % 0371
2020-05-24 11:33:17 FLAPS EXTENSION 34 % 0371
2020-05-24 11:33:17 FLAPS EXTENSION 36 % 0371
2020-05-24 11:33:17 FLAPS EXTENSION 37 % 0371
2020-05-24 11:34:51 TAXI TO THE RWY 5371
2020-05-24 11:34:51 TAXING WITH TAXI LIGHTS OFF5371
2020-05-24 11:36:36 ROLLING FOR TAKE OFF43371
2020-05-24 11:36:37 TAKE OFF46371
2020-05-24 11:37:30 FLAPS EXTENSION 35 % 54654
2020-05-24 11:37:30 FLAPS EXTENSION 33 % 54655
2020-05-24 11:37:30 FLAPS EXTENSION 31 % 54656
2020-05-24 11:37:31 FLAPS EXTENSION 29 % 54656
2020-05-24 11:37:31 FLAPS EXTENSION 27 % 54657
2020-05-24 11:37:31 FLAPS EXTENSION 24 % 55658
2020-05-24 11:37:31 FLAPS EXTENSION 22 % 55659
2020-05-24 11:37:31 FLAPS EXTENSION 20 % 55659
2020-05-24 11:37:32 FLAPS EXTENSION 19 % 55659
2020-05-24 11:37:37 CRUISE58672
2020-05-24 11:37:42 FLAPS EXTENSION 18 % 60692
2020-05-24 11:37:42 FLAPS EXTENSION 15 % 60693
2020-05-24 11:37:43 FLAPS EXTENSION 13 % 60693
2020-05-24 11:37:43 FLAPS EXTENSION 11 % 60694
2020-05-24 11:37:43 FLAPS EXTENSION 10 % 60694
2020-05-24 11:37:43 FLAPS EXTENSION 7 % 60695
2020-05-24 11:37:43 FLAPS EXTENSION 4 % 61696
2020-05-24 11:37:43 FLAPS EXTENSION 2 % 61696
2020-05-24 11:37:44 FLAPS EXTENSION 0 % 61697
2020-05-24 11:38:27 CLIMBING75882
2020-05-24 11:40:07 CRUISE801300
2020-05-24 11:40:47 CLIMBING781453
2020-05-24 11:41:27 CRUISE801562
2020-05-24 11:42:37 CLIMBING801780
2020-05-24 11:43:27 CRUISE801926
2020-05-24 11:44:07 CLIMBING782056
2020-05-24 11:44:47 CRUISE812143
2020-05-24 11:46:27 CLIMBING822377
2020-05-24 11:48:27 CRUISE812908
2020-05-24 11:49:07 CLIMBING813055
2020-05-24 11:52:17 CRUISE833786
2020-05-24 11:52:47 CLIMBING823909
2020-05-24 11:53:57 CRUISE874125
2020-05-24 11:54:47 CLIMBING854302
2020-05-24 11:55:27 CRUISE864425
2020-05-24 11:56:57 DESCEND1074291
2020-05-24 12:00:07 CRUISE1253139
2020-05-24 12:00:37 DESCEND1292731
2020-05-24 12:02:47 CRUISE1161664
2020-05-24 12:03:47 DESCEND1111571
2020-05-24 12:05:07 CRUISE1081620
2020-05-24 12:05:57 DESCEND1131441
2020-05-24 12:06:27 CRUISE1121399
2020-05-24 12:08:27 CLIMBING921591
2020-05-24 12:09:17 CRUISE971768
2020-05-24 12:13:07 DESCEND891841
2020-05-24 12:13:25 FLAPS EXTENSION 1 % 681794
2020-05-24 12:13:26 FLAPS EXTENSION 4 % 671793
2020-05-24 12:13:26 FLAPS EXTENSION 7 % 671792
2020-05-24 12:13:26 FLAPS EXTENSION 9 % 671791
2020-05-24 12:13:26 FLAPS EXTENSION 11 % 671791
2020-05-24 12:13:26 FLAPS EXTENSION 13 % 671790
2020-05-24 12:13:26 FLAPS EXTENSION 16 % 671790
2020-05-24 12:13:27 FLAPS EXTENSION 18 % 661789
2020-05-24 12:13:27 FLAPS EXTENSION 21 % 661788
2020-05-24 12:13:27 FLAPS EXTENSION 23 % 661788
2020-05-24 12:13:27 FLAPS EXTENSION 24 % 661787
2020-05-24 12:13:31 FLAPS EXTENSION 25 % 641767
2020-05-24 12:13:31 FLAPS EXTENSION 30 % 641766
2020-05-24 12:13:31 FLAPS EXTENSION 32 % 641765
2020-05-24 12:13:32 FLAPS EXTENSION 35 % 631764
2020-05-24 12:13:37 FLAPS EXTENSION 37 % 591742
2020-05-24 12:13:37 FLAPS EXTENSION 40 % 591740
2020-05-24 12:13:38 FLAPS EXTENSION 42 % 591739
2020-05-24 12:13:38 FLAPS EXTENSION 45 % 581737
2020-05-24 12:13:38 FLAPS EXTENSION 46 % 581736
2020-05-24 12:13:38 FLAPS EXTENSION 49 % 581735
2020-05-24 12:13:38 FLAPS EXTENSION 50 % 581734
2020-05-24 12:13:38 FLAPS EXTENSION 53 % 581733
2020-05-24 12:13:39 FLAPS EXTENSION 55 % 581732
2020-05-24 12:13:39 FLAPS EXTENSION 56 % 581731
2020-05-24 12:13:39 FLAPS EXTENSION 59 % 581730
2020-05-24 12:13:39 FLAPS EXTENSION 61 % 571730
2020-05-24 12:13:39 FLAPS EXTENSION 63 % 571729
2020-05-24 12:13:39 FLAPS EXTENSION 66 % 571728
2020-05-24 12:13:40 FLAPS EXTENSION 69 % 571726
2020-05-24 12:13:40 FLAPS EXTENSION 70 % 571726
2020-05-24 12:13:40 FLAPS EXTENSION 72 % 571725
2020-05-24 12:13:40 FLAPS EXTENSION 75 % 561724
2020-05-24 12:13:40 FLAPS EXTENSION 77 % 561723
2020-05-24 12:13:40 FLAPS EXTENSION 79 % 561722
2020-05-24 12:13:41 FLAPS EXTENSION 81 % 561721
2020-05-24 12:13:41 FLAPS EXTENSION 83 % 561721
2020-05-24 12:13:41 FLAPS EXTENSION 85 % 561719
2020-05-24 12:13:41 FLAPS EXTENSION 88 % 551718
2020-05-24 12:13:41 FLAPS EXTENSION 90 % 551718
2020-05-24 12:13:42 FLAPS EXTENSION 91 % 551717
2020-05-24 12:13:42 FLAPS EXTENSION 95 % 551716
2020-05-24 12:13:42 FLAPS EXTENSION 96 % 551715
2020-05-24 12:13:42 FLAPS EXTENSION 98 % 541714
2020-05-24 12:13:42 FLAPS EXTENSION 99 % 541713
2020-05-24 12:13:59 FLAPS EXTENSION 100 % 521632
2020-05-24 12:14:02 FLAPS EXTENSION 99 % 511622
2020-05-24 12:14:02 FLAPS EXTENSION 97 % 511622
2020-05-24 12:14:03 FLAPS EXTENSION 94 % 511621
2020-05-24 12:14:03 FLAPS EXTENSION 93 % 511620
2020-05-24 12:14:03 FLAPS EXTENSION 92 % 511619
2020-05-24 12:14:03 FLAPS EXTENSION 94 % 511618
2020-05-24 12:14:03 FLAPS EXTENSION 97 % 511617
2020-05-24 12:14:03 FLAPS EXTENSION 98 % 511616
2020-05-24 12:14:04 FLAPS EXTENSION 100 % 511616
2020-05-24 12:14:04 FLAPS EXTENSION 100 % 511615
2020-05-24 12:14:27 CRUISE521512
2020-05-24 12:14:57 DESCEND581200
2020-05-24 12:16:47 CRUISE49267
2020-05-24 12:17:40 LANDING57260
2020-05-24 12:18:05 TAXI TO THE GATE20259
2020-05-24 12:18:36 FLAPS EXTENSION 92 % 0259
2020-05-24 12:18:36 FLAPS EXTENSION 91 % 0259
2020-05-24 12:18:36 FLAPS EXTENSION 89 % 0259
2020-05-24 12:18:36 FLAPS EXTENSION 87 % 0259
2020-05-24 12:18:36 FLAPS EXTENSION 85 % 0259
2020-05-24 12:18:36 FLAPS EXTENSION 83 % 0259
2020-05-24 12:18:37 FLAPS EXTENSION 81 % 0259
2020-05-24 12:18:37 FLAPS EXTENSION 79 % 0259
2020-05-24 12:18:37 FLAPS EXTENSION 77 % 0259
2020-05-24 12:18:37 FLAPS EXTENSION 75 % 0259
2020-05-24 12:18:37 FLAPS EXTENSION 74 % 0259
2020-05-24 12:18:37 FLAPS EXTENSION 72 % 0259
2020-05-24 12:18:38 FLAPS EXTENSION 69 % 0259
2020-05-24 12:18:38 FLAPS EXTENSION 68 % 0259
2020-05-24 12:18:38 FLAPS EXTENSION 66 % 0259
2020-05-24 12:18:38 FLAPS EXTENSION 64 % 0259
2020-05-24 12:18:38 FLAPS EXTENSION 62 % 0259
2020-05-24 12:18:38 FLAPS EXTENSION 60 % 0259
2020-05-24 12:18:38 FLAPS EXTENSION 59 % 0259
2020-05-24 12:18:39 FLAPS EXTENSION 57 % 0259
2020-05-24 12:18:39 FLAPS EXTENSION 55 % 0259
2020-05-24 12:18:39 FLAPS EXTENSION 53 % 0259
2020-05-24 12:18:39 FLAPS EXTENSION 51 % 0259
2020-05-24 12:18:39 FLAPS EXTENSION 50 % 0259
2020-05-24 12:18:39 FLAPS EXTENSION 48 % 0259
2020-05-24 12:18:40 FLAPS EXTENSION 46 % 0259
2020-05-24 12:18:40 FLAPS EXTENSION 44 % 0259
2020-05-24 12:18:40 FLAPS EXTENSION 43 % 0259
2020-05-24 12:18:40 FLAPS EXTENSION 40 % 0259
2020-05-24 12:18:40 FLAPS EXTENSION 38 % 0259
2020-05-24 12:18:40 FLAPS EXTENSION 35 % 0259
2020-05-24 12:18:40 FLAPS EXTENSION 34 % 0259
2020-05-24 12:18:41 FLAPS EXTENSION 32 % 0259
2020-05-24 12:18:41 FLAPS EXTENSION 29 % 0259
2020-05-24 12:18:41 FLAPS EXTENSION 28 % 0259
2020-05-24 12:18:41 FLAPS EXTENSION 25 % 0259
2020-05-24 12:18:41 FLAPS EXTENSION 24 % 0259
2020-05-24 12:18:41 FLAPS EXTENSION 21 % 0259
2020-05-24 12:18:42 FLAPS EXTENSION 20 % 0259
2020-05-24 12:18:42 FLAPS EXTENSION 18 % 0259
2020-05-24 12:18:42 FLAPS EXTENSION 16 % 0259
2020-05-24 12:18:42 FLAPS EXTENSION 14 % 0259
2020-05-24 12:18:42 FLAPS EXTENSION 12 % 0259
2020-05-24 12:18:42 FLAPS EXTENSION 10 % 0259
2020-05-24 12:18:43 FLAPS EXTENSION 8 % 0259
2020-05-24 12:18:43 FLAPS EXTENSION 6 % 0259
2020-05-24 12:18:43 FLAPS EXTENSION 4 % 0259
2020-05-24 12:18:43 FLAPS EXTENSION 2 % 0259
2020-05-24 12:18:43 FLAPS EXTENSION 1 % 0259
2020-05-24 12:18:43 FLAPS EXTENSION 0 % 0259
2020-05-24 12:22:16 STOPPING ENGINE 1 3259
 ACARS DATA
DATE IASGSALTITUDEFUEL CONSUMED OATFLIGHT STATUS
2020-05-24 11:29:3400370122BOARDING
2020-05-24 11:30:3400370122BOARDING
2020-05-24 11:31:3400371222BOARDING
2020-05-24 11:32:3400371322BOARDING
2020-05-24 11:33:3500371422BOARDING
2020-05-24 11:34:3500370522BOARDING
2020-05-24 11:35:34913370622TAXI TO THE RWY
2020-05-24 11:36:353941371822TAXI TO THE RWY
2020-05-24 11:37:3456496661021CLIMBING
2020-05-24 11:38:3575689301220CLIMBING
2020-05-24 11:39:34827611671320CLIMBING
2020-05-24 11:40:35807513851519CRUISE
2020-05-24 11:41:35797215841619CRUISE
2020-05-24 11:42:34797317701819CRUISE
2020-05-24 11:43:34837619231918CRUISE
2020-05-24 11:44:35797321182018CLIMBING
2020-05-24 11:45:35828822612218CRUISE
2020-05-24 11:46:34767024462317CLIMBING
2020-05-24 11:47:34797327072517CLIMBING
2020-05-24 11:48:34807429362616CRUISE
2020-05-24 11:49:34817531482816CLIMBING
2020-05-24 11:50:35817533602915CLIMBING
2020-05-24 11:51:35797336363014CLIMBING
2020-05-24 11:52:34817638683214CRUISE
2020-05-24 11:53:34827640833314CLIMBING
2020-05-24 11:54:34868142483513CRUISE
2020-05-24 11:55:34888444233613CRUISE
2020-05-24 11:56:351019843833813CRUISE
2020-05-24 11:57:3510710441723913DESCEND
2020-05-24 11:58:3411711337704014DESCEND
2020-05-24 11:59:3411611234864215DESCEND
2020-05-24 12:00:3412813127714317CRUISE
2020-05-24 12:01:3412312822144519DESCEND
2020-05-24 12:02:3412213016654620DESCEND
2020-05-24 12:03:3511412215814820CRUISE
2020-05-24 12:04:3510611515504920DESCEND
2020-05-24 12:05:3411312214855021CRUISE
2020-05-24 12:06:3411112013905221CRUISE
2020-05-24 12:07:3510511413665321CRUISE
2020-05-24 12:08:359310216275521CLIMBING
2020-05-24 12:09:349610718175620CRUISE
2020-05-24 12:10:359410519825820CRUISE
2020-05-24 12:11:349510520735920CRUISE
2020-05-24 12:12:3510111120936120CRUISE
2020-05-24 12:13:34606617566121DESCEND
2020-05-24 12:14:34536014566321CRUISE
2020-05-24 12:15:3456617336323DESCEND
2020-05-24 12:16:3547512866424DESCEND
2020-05-24 12:17:3457602626624CRUISE
2020-05-24 12:18:34002586624TAXI TO THE GATE
2020-05-24 12:19:3414132596724TAXI TO THE GATE
2020-05-24 12:20:341092586824TAXI TO THE GATE
2020-05-24 12:21:3515132596924TAXI TO THE GATE
2020-05-24 12:22:35202587024TAXI TO THE GATE